createdAt,value
2022-12-09T00:01:23.201Z,4.53
2022-12-09T00:03:51.013Z,3.33
2022-12-09T00:06:25.568Z,3.40
2022-12-09T00:08:53.874Z,2.70
2022-12-09T00:11:22.449Z,3.40
2022-12-09T00:13:52.427Z,4.73
2022-12-09T00:16:21.387Z,4.50
2022-12-09T00:18:50.035Z,2.90
2022-12-09T00:21:24.176Z,3.93
2022-12-09T00:23:54.837Z,2.50
2022-12-09T00:26:24.459Z,3.00
2022-12-09T00:28:52.828Z,3.97
2022-12-09T00:31:28.251Z,3.30
2022-12-09T00:34:05.526Z,4.77
2022-12-09T00:36:33.388Z,3.20
2022-12-09T00:39:00.988Z,5.07
2022-12-09T00:41:29.437Z,4.10
2022-12-09T00:43:58.360Z,3.97
2022-12-09T00:46:26.059Z,4.90
2022-12-09T00:48:53.362Z,3.43
2022-12-09T00:51:24.209Z,3.20
2022-12-09T00:53:52.792Z,3.23
2022-12-09T00:56:24.831Z,5.80
2022-12-09T00:58:52.755Z,4.97
2022-12-09T01:01:20.405Z,2.93
2022-12-09T01:03:47.800Z,2.70
2022-12-09T01:06:20.238Z,6.30
2022-12-09T01:08:48.209Z,2.63
2022-12-09T01:11:23.858Z,3.30
2022-12-09T01:13:52.394Z,3.47
2022-12-09T01:16:26.655Z,2.37
2022-12-09T01:18:56.092Z,2.70
2022-12-09T01:21:23.548Z,3.13
2022-12-09T01:23:50.891Z,4.07
2022-12-09T01:26:18.495Z,3.20
2022-12-09T01:28:46.016Z,3.30
2022-12-09T01:31:18.248Z,3.53
2022-12-09T01:33:46.489Z,2.97
2022-12-09T01:36:24.579Z,2.97
2022-12-09T01:38:52.617Z,3.60
2022-12-09T01:41:22.209Z,3.17
2022-12-09T01:44:19.564Z,3.90
2022-12-09T01:46:48.389Z,2.97
2022-12-09T01:49:29.050Z,4.07
2022-12-09T01:52:22.582Z,3.30
2022-12-09T01:54:52.925Z,3.10
2022-12-09T01:57:20.664Z,2.87
2022-12-09T01:59:48.458Z,3.80
2022-12-09T02:02:20.411Z,4.37
2022-12-09T02:04:50.440Z,2.90
2022-12-09T02:07:19.306Z,3.67
2022-12-09T02:09:47.187Z,2.63
2022-12-09T02:12:33.725Z,3.03
2022-12-09T02:15:12.390Z,2.80
2022-12-09T02:17:58.399Z,4.83
2022-12-09T02:20:48.984Z,4.13
2022-12-09T02:23:29.142Z,3.40
2022-12-09T02:26:30.350Z,2.93
2022-12-09T02:29:07.268Z,4.47
2022-12-09T02:32:19.221Z,2.83
2022-12-09T02:35:05.492Z,2.90
2022-12-09T02:38:00.773Z,2.90
2022-12-09T02:41:06.983Z,2.50
2022-12-09T02:43:46.660Z,2.97
2022-12-09T02:46:21.751Z,3.83
2022-12-09T02:48:56.697Z,2.57
2022-12-09T02:51:29.815Z,3.07
2022-12-09T02:54:05.397Z,4.90
2022-12-09T02:56:34.268Z,3.37
2022-12-09T02:59:02.503Z,4.23
2022-12-09T03:01:42.896Z,3.00
2022-12-09T03:04:18.682Z,3.63
2022-12-09T03:06:56.048Z,3.50
2022-12-09T03:09:32.010Z,4.83
2022-12-09T03:12:07.705Z,8.40
2022-12-09T03:14:52.983Z,5.20
2022-12-09T03:17:37.830Z,5.03
2022-12-09T03:20:24.967Z,5.20
2022-12-09T03:22:59.012Z,5.47
2022-12-09T03:25:40.558Z,3.33
2022-12-09T03:28:17.689Z,3.47
2022-12-09T03:30:47.590Z,6.53
2022-12-09T03:33:19.051Z,3.00
2022-12-09T03:35:58.220Z,6.87
2022-12-09T03:38:32.729Z,2.93
2022-12-09T03:41:32.746Z,5.63
2022-12-09T03:44:09.697Z,3.67
2022-12-09T03:46:37.777Z,3.70
2022-12-09T03:49:06.286Z,4.53
2022-12-09T03:52:00.215Z,6.30
2022-12-09T03:54:35.473Z,6.37
2022-12-09T03:57:04.155Z,3.83
2022-12-09T03:59:34.992Z,4.03
2022-12-09T04:02:02.776Z,5.27
2022-12-09T04:04:30.565Z,5.20
2022-12-09T04:06:58.291Z,4.80
2022-12-09T04:09:25.990Z,3.90
2022-12-09T04:11:53.300Z,3.93
2022-12-09T04:14:20.599Z,3.80
2022-12-09T04:16:48.209Z,3.73
2022-12-09T04:19:15.646Z,3.97
2022-12-09T04:21:43.321Z,4.37
2022-12-09T04:24:10.827Z,3.17
2022-12-09T04:26:38.190Z,4.10
2022-12-09T04:29:05.647Z,5.03
2022-12-09T04:31:33.599Z,3.00
2022-12-09T04:34:06.775Z,4.57
2022-12-09T04:36:36.585Z,6.43
2022-12-09T04:39:04.228Z,3.47
2022-12-09T04:41:31.915Z,3.50
2022-12-09T04:43:59.359Z,9.83
2022-12-09T04:46:26.857Z,5.10
2022-12-09T04:48:54.197Z,3.07
2022-12-09T04:51:21.388Z,4.10
2022-12-09T04:53:48.760Z,3.97
2022-12-09T04:56:21.623Z,4.40
2022-12-09T04:58:51.206Z,3.73
2022-12-09T05:01:29.843Z,6.63
2022-12-09T05:03:59.637Z,4.17
2022-12-09T05:06:27.498Z,6.50
2022-12-09T05:08:55.702Z,9.67
2022-12-09T05:11:23.871Z,11.23
2022-12-09T05:13:54.051Z,14.63
2022-12-09T05:16:22.659Z,16.57
2022-12-09T05:18:50.684Z,19.60
2022-12-09T05:21:21.087Z,12.23
2022-12-09T05:23:49.411Z,12.90
2022-12-09T05:26:21.510Z,10.73
2022-12-09T05:28:51.035Z,10.13
2022-12-09T05:31:23.113Z,7.93
2022-12-09T05:33:52.657Z,12.57
2022-12-09T05:36:25.421Z,14.17
2022-12-09T05:38:54.075Z,14.70
2022-12-09T05:41:23.142Z,12.03
2022-12-09T05:43:51.967Z,9.60
2022-12-09T05:46:20.650Z,11.40
2022-12-09T05:48:48.337Z,10.87
2022-12-09T05:51:26.275Z,11.37
2022-12-09T05:53:55.095Z,9.43
2022-12-09T05:56:25.246Z,12.77
2022-12-09T05:58:54.648Z,9.27
2022-12-09T06:01:23.601Z,9.33
2022-12-09T06:03:53.417Z,7.07
2022-12-09T06:06:24.730Z,9.67
2022-12-09T06:08:57.910Z,8.03
2022-12-09T06:11:26.866Z,10.40
2022-12-09T06:13:55.373Z,8.03
2022-12-09T06:16:23.547Z,8.27
2022-12-09T06:18:51.654Z,9.13
2022-12-09T06:21:21.277Z,11.03
2022-12-09T06:23:50.791Z,18.77
2022-12-09T06:26:26.157Z,19.60
2022-12-09T06:28:55.007Z,21.10
2022-12-09T06:31:23.419Z,22.07
2022-12-09T06:33:55.440Z,22.57
2022-12-09T06:36:24.353Z,22.00
2022-12-09T06:38:54.065Z,17.40
2022-12-09T06:41:21.406Z,24.30
2022-12-09T06:43:49.492Z,22.47
2022-12-09T06:46:25.020Z,19.53
2022-12-09T06:48:56.618Z,14.17
2022-12-09T06:51:26.097Z,16.07
2022-12-09T06:53:54.728Z,14.93
2022-12-09T06:56:23.445Z,19.07
2022-12-09T06:58:51.307Z,25.93
2022-12-09T07:01:25.248Z,18.70
2022-12-09T07:03:57.115Z,21.17
2022-12-09T07:06:41.030Z,16.50
2022-12-09T07:09:20.895Z,19.03
2022-12-09T07:11:49.615Z,22.20
2022-12-09T07:14:18.640Z,17.47
2022-12-09T07:16:47.151Z,16.03
2022-12-09T07:19:21.468Z,16.27
2022-12-09T07:21:51.039Z,20.60
2022-12-09T07:24:22.589Z,21.17
2022-12-09T07:26:58.531Z,17.90
2022-12-09T07:29:28.269Z,20.67
2022-12-09T07:31:55.813Z,15.13
2022-12-09T07:34:30.820Z,17.10
2022-12-09T07:36:58.675Z,19.80
2022-12-09T07:39:29.245Z,21.23
2022-12-09T07:41:57.888Z,21.30
2022-12-09T07:44:26.816Z,29.87
2022-12-09T07:46:55.830Z,36.80
2022-12-09T07:49:24.155Z,30.83
2022-12-09T07:51:53.073Z,21.33
2022-12-09T07:54:22.085Z,18.43
2022-12-09T07:56:49.893Z,17.37
2022-12-09T07:59:17.748Z,12.47
2022-12-09T08:01:45.395Z,15.63
2022-12-09T08:04:14.399Z,22.77
2022-12-09T08:06:42.607Z,18.77
2022-12-09T08:09:13.733Z,15.80
2022-12-09T08:11:41.758Z,17.30
2022-12-09T08:14:13.042Z,16.00
2022-12-09T08:16:43.637Z,17.60
2022-12-09T08:19:12.207Z,16.03
2022-12-09T08:21:41.702Z,12.57
2022-12-09T08:24:12.753Z,18.13
2022-12-09T08:26:41.090Z,13.57
2022-12-09T08:29:12.315Z,16.00
2022-12-09T08:31:43.647Z,13.07
2022-12-09T08:34:12.238Z,13.37
2022-12-09T08:36:40.110Z,15.47
2022-12-09T08:39:09.312Z,12.63
2022-12-09T08:41:39.125Z,12.83
2022-12-09T08:44:18.794Z,11.93
2022-12-09T08:46:50.153Z,16.90
2022-12-09T08:49:21.042Z,20.43
2022-12-09T08:51:51.025Z,20.83
2022-12-09T08:54:18.992Z,13.63
2022-12-09T08:56:48.475Z,21.20
2022-12-09T08:59:16.984Z,16.27
2022-12-09T09:01:45.572Z,14.00
2022-12-09T09:04:18.128Z,20.07
2022-12-09T09:06:48.612Z,14.13
2022-12-09T09:09:17.700Z,17.80
2022-12-09T09:11:45.690Z,17.93
2022-12-09T09:14:15.808Z,17.30
2022-12-09T09:16:45.586Z,16.47
2022-12-09T09:19:21.602Z,14.03
2022-12-09T09:21:49.989Z,13.47
2022-12-09T09:24:21.369Z,20.47
2022-12-09T09:26:52.451Z,16.27
2022-12-09T09:29:22.844Z,14.57
2022-12-09T09:31:51.188Z,12.10
2022-12-09T09:34:18.917Z,10.13
2022-12-09T09:36:47.625Z,11.87
2022-12-09T09:39:15.414Z,11.00
2022-12-09T09:41:58.187Z,10.60
2022-12-09T09:44:38.888Z,12.13
2022-12-09T09:47:17.784Z,14.30
2022-12-09T09:50:36.144Z,14.50
2022-12-09T09:53:24.683Z,17.33
2022-12-09T09:56:04.907Z,11.30
2022-12-09T09:58:53.421Z,10.93
2022-12-09T10:01:28.820Z,15.63
2022-12-09T10:04:24.628Z,34.80
2022-12-09T10:07:46.053Z,13.97
2022-12-09T10:11:03.917Z,10.07
2022-12-09T10:13:49.455Z,22.17
2022-12-09T10:16:35.776Z,19.40
2022-12-09T10:19:43.631Z,26.83
2022-12-09T10:22:21.482Z,35.20
2022-12-09T10:24:55.432Z,35.80
2022-12-09T10:27:42.114Z,32.90
2022-12-09T10:30:16.761Z,24.00
2022-12-09T10:32:45.087Z,19.43
2022-12-09T10:35:19.523Z,28.90
2022-12-09T10:37:49.851Z,33.73
2022-12-09T10:40:32.991Z,19.43
2022-12-09T10:43:21.394Z,14.63
2022-12-09T10:48:47.323Z,16.53
2022-12-09T10:51:30.195Z,19.63
2022-12-09T10:54:10.632Z,20.03
2022-12-09T10:57:05.154Z,18.73
2022-12-09T10:59:34.153Z,29.90
2022-12-09T11:02:23.192Z,29.67
2022-12-09T11:04:51.348Z,21.67
2022-12-09T11:07:20.904Z,13.80
2022-12-09T11:10:39.060Z,15.10
2022-12-09T11:13:15.228Z,17.33
2022-12-09T11:15:50.435Z,18.23
2022-12-09T11:18:29.386Z,20.87
2022-12-09T11:21:02.011Z,17.70
2022-12-09T11:23:30.076Z,19.30
2022-12-09T11:26:03.301Z,21.03
2022-12-09T11:28:40.136Z,21.20
2022-12-09T11:31:29.625Z,20.70
2022-12-09T11:34:06.612Z,21.20
2022-12-09T11:36:44.017Z,20.37
2022-12-09T11:39:25.332Z,18.97
2022-12-09T11:41:59.648Z,18.67
2022-12-09T11:44:32.720Z,20.37
2022-12-09T11:47:19.846Z,13.30
2022-12-09T11:49:56.908Z,13.13
2022-12-09T11:52:31.178Z,25.50
2022-12-09T11:55:25.499Z,27.30
2022-12-09T11:58:06.414Z,22.57
2022-12-09T12:00:55.101Z,20.13
2022-12-09T12:03:37.971Z,14.90
2022-12-09T12:06:16.387Z,15.07
2022-12-09T12:09:11.387Z,18.97
2022-12-09T12:11:58.296Z,19.60
2022-12-09T12:14:30.000Z,19.07
2022-12-09T12:17:24.706Z,13.47
2022-12-09T12:19:53.838Z,13.50
2022-12-09T12:23:03.971Z,16.30
2022-12-09T12:26:05.757Z,14.50
2022-12-09T12:29:29.140Z,17.67
2022-12-09T12:32:42.430Z,21.57
2022-12-09T12:35:29.254Z,11.53
2022-12-09T12:38:45.420Z,14.77
2022-12-09T12:41:50.686Z,15.87
2022-12-09T12:45:06.837Z,16.43
2022-12-09T12:48:15.353Z,12.53
2022-12-09T12:51:19.661Z,14.40
2022-12-09T12:54:03.103Z,13.93
2022-12-09T12:56:51.364Z,12.83
2022-12-09T12:59:49.776Z,16.47
2022-12-09T13:02:59.249Z,13.33
2022-12-09T13:05:37.472Z,12.00
2022-12-09T13:08:10.771Z,11.40
2022-12-09T13:10:57.399Z,11.83
2022-12-09T13:13:33.504Z,14.70
2022-12-09T13:16:39.538Z,14.63
2022-12-09T13:19:32.635Z,14.67
2022-12-09T13:22:00.032Z,12.13
2022-12-09T13:24:32.194Z,14.70
2022-12-09T13:27:09.764Z,15.17
2022-12-09T13:30:10.128Z,13.63
2022-12-09T13:33:29.015Z,10.77
2022-12-09T13:36:13.699Z,9.43
2022-12-09T13:38:43.422Z,11.67
2022-12-09T13:41:32.364Z,10.50
2022-12-09T13:44:17.227Z,10.40
2022-12-09T13:46:45.116Z,9.43
2022-12-09T13:49:25.000Z,12.07
2022-12-09T13:51:55.478Z,9.73
2022-12-09T13:54:28.171Z,11.37
2022-12-09T13:57:40.572Z,9.40
2022-12-09T14:00:17.967Z,8.83
2022-12-09T14:03:00.083Z,15.13
2022-12-09T14:05:35.654Z,20.30
2022-12-09T14:08:30.011Z,26.17
2022-12-09T14:10:57.513Z,31.53
2022-12-09T14:13:36.378Z,36.50
2022-12-09T14:16:28.128Z,33.97
2022-12-09T14:19:18.640Z,28.63
2022-12-09T14:22:17.550Z,22.40
2022-12-09T14:24:56.540Z,25.23
2022-12-09T14:27:25.077Z,24.80
2022-12-09T14:29:57.504Z,14.23
2022-12-09T14:32:54.075Z,14.47
2022-12-09T14:35:30.494Z,11.23
2022-12-09T14:39:07.919Z,12.07
2022-12-09T14:41:39.408Z,15.57
2022-12-09T14:44:50.100Z,27.80
2022-12-09T14:47:30.656Z,17.73
2022-12-09T14:50:14.407Z,17.00
2022-12-09T14:53:01.843Z,20.53
2022-12-09T14:55:37.265Z,24.63
2022-12-09T14:58:05.618Z,27.87
2022-12-09T15:00:40.789Z,26.40
2022-12-09T15:03:35.633Z,27.13
2022-12-09T15:06:17.723Z,28.17
2022-12-09T15:08:46.027Z,23.87
2022-12-09T15:11:23.442Z,19.50
2022-12-09T15:13:53.549Z,16.90
2022-12-09T15:16:26.217Z,17.57
2022-12-09T15:18:54.574Z,15.37
2022-12-09T15:21:32.823Z,21.40
2022-12-09T15:24:01.536Z,17.23
2022-12-09T15:26:33.078Z,20.57
2022-12-09T15:29:01.359Z,15.30
2022-12-09T15:31:32.040Z,13.23
2022-12-09T15:34:15.633Z,12.57
2022-12-09T15:36:55.575Z,11.63
2022-12-09T15:39:32.682Z,22.27
2022-12-09T15:42:16.434Z,19.03
2022-12-09T15:45:09.688Z,21.17
2022-12-09T15:47:51.698Z,33.33
2022-12-09T15:50:35.463Z,31.20
2022-12-09T15:53:22.228Z,31.57
2022-12-09T15:56:09.076Z,23.77
2022-12-09T15:58:46.563Z,20.03
2022-12-09T16:01:30.636Z,19.63
2022-12-09T16:04:01.324Z,21.00
2022-12-09T16:06:39.085Z,25.63
2022-12-09T16:09:26.435Z,21.20
2022-12-09T16:11:54.597Z,20.57
2022-12-09T16:14:24.382Z,21.67
2022-12-09T16:17:03.333Z,23.00
2022-12-09T16:19:33.404Z,18.17
2022-12-09T16:22:16.098Z,19.90
2022-12-09T16:25:14.366Z,21.87
2022-12-09T16:27:48.859Z,17.93
2022-12-09T16:30:17.839Z,20.63
2022-12-09T16:32:53.243Z,16.70
2022-12-09T16:35:37.269Z,14.23
2022-12-09T16:38:15.653Z,12.53
2022-12-09T16:40:46.099Z,11.93
2022-12-09T16:43:16.253Z,9.73
2022-12-09T16:45:56.484Z,9.20
2022-12-09T16:48:26.486Z,10.87
2022-12-09T16:51:12.538Z,12.77
2022-12-09T16:53:47.627Z,11.53
2022-12-09T16:56:25.362Z,14.80
2022-12-09T16:58:54.085Z,20.57
2022-12-09T17:01:26.721Z,22.17
2022-12-09T17:04:04.155Z,19.57
2022-12-09T17:06:31.535Z,17.73
2022-12-09T17:08:58.912Z,15.90
2022-12-09T17:11:26.121Z,14.63
2022-12-09T17:13:53.383Z,16.73
2022-12-09T17:16:21.181Z,17.10
2022-12-09T17:18:49.040Z,15.10
2022-12-09T17:21:17.434Z,19.43
2022-12-09T17:23:45.499Z,18.00
2022-12-09T17:26:16.862Z,12.40
2022-12-09T17:28:44.986Z,14.80
2022-12-09T17:31:20.691Z,11.13
2022-12-09T17:33:49.212Z,12.93
2022-12-09T17:36:17.993Z,14.00
2022-12-09T17:38:45.562Z,14.30
2022-12-09T17:41:16.424Z,10.63
2022-12-09T17:43:43.597Z,11.77
2022-12-09T17:46:13.163Z,11.80
2022-12-09T17:48:41.043Z,15.47
2022-12-09T17:51:14.703Z,11.70
2022-12-09T17:53:42.940Z,11.80
2022-12-09T17:56:17.016Z,11.57
2022-12-09T17:58:44.645Z,12.57
2022-12-09T18:01:21.761Z,12.03
2022-12-09T18:03:59.389Z,13.23
2022-12-09T18:06:31.230Z,12.50
2022-12-09T18:08:58.424Z,13.17
2022-12-09T18:11:26.495Z,13.63
2022-12-09T18:13:54.354Z,12.30
2022-12-09T18:16:21.687Z,11.63
2022-12-09T18:18:49.330Z,10.83
2022-12-09T18:21:17.399Z,9.77
2022-12-09T18:23:44.585Z,11.10
2022-12-09T18:26:16.378Z,10.23
2022-12-09T18:28:44.032Z,10.40
2022-12-09T18:31:17.930Z,9.40
2022-12-09T18:33:45.185Z,8.77
2022-12-09T18:36:16.842Z,12.30
2022-12-09T18:38:44.467Z,12.93
2022-12-09T18:41:19.024Z,10.80
2022-12-09T18:43:50.483Z,11.80
2022-12-09T18:46:32.758Z,11.20
2022-12-09T18:49:06.919Z,11.63
2022-12-09T18:51:35.141Z,11.67
2022-12-09T18:54:04.270Z,14.27
2022-12-09T18:56:32.486Z,12.50
2022-12-09T18:59:08.587Z,10.60
2022-12-09T19:01:41.097Z,12.87
2022-12-09T19:04:16.650Z,13.67
2022-12-09T19:06:46.959Z,11.77
2022-12-09T19:09:22.021Z,11.47
2022-12-09T19:11:52.045Z,10.43
2022-12-09T19:14:22.653Z,10.33
2022-12-09T19:16:51.402Z,14.87
2022-12-09T19:19:23.496Z,17.37
2022-12-09T19:21:52.201Z,13.93
2022-12-09T19:24:23.579Z,13.17
2022-12-09T19:26:52.073Z,11.43
2022-12-09T19:29:21.057Z,16.60
2022-12-09T19:31:52.090Z,15.87
2022-12-09T19:34:31.920Z,12.90
2022-12-09T19:37:01.470Z,14.37
2022-12-09T19:39:31.593Z,13.70
2022-12-09T19:42:00.416Z,15.07
2022-12-09T19:44:59.585Z,13.63
2022-12-09T19:47:15.452Z,13.73
2022-12-09T19:49:43.383Z,13.10
2022-12-09T19:52:12.699Z,15.37
2022-12-09T19:54:40.149Z,15.97
2022-12-09T19:57:07.331Z,15.77
2022-12-09T19:59:34.579Z,14.43
2022-12-09T20:02:01.917Z,10.50
2022-12-09T20:07:19.681Z,12.10
2022-12-09T20:09:47.588Z,11.50
2022-12-09T20:12:14.885Z,12.07
2022-12-09T20:14:42.254Z,15.17
2022-12-09T20:17:09.784Z,13.00
2022-12-09T20:19:37.122Z,11.33
2022-12-09T20:22:04.418Z,12.53
2022-12-09T20:24:32.828Z,12.03
2022-12-09T20:27:00.249Z,13.53
2022-12-09T20:29:31.126Z,13.07
2022-12-09T20:32:01.345Z,13.43
2022-12-09T20:34:28.565Z,11.33
2022-12-09T20:36:56.022Z,11.43
2022-12-09T20:39:23.276Z,12.07
2022-12-09T20:41:50.676Z,14.40
2022-12-09T20:44:18.848Z,12.93
2022-12-09T20:46:52.693Z,14.40
2022-12-09T20:49:21.080Z,11.27
2022-12-09T20:51:48.260Z,12.97
2022-12-09T20:54:15.498Z,12.63
2022-12-09T20:56:42.839Z,12.83
2022-12-09T20:59:12.528Z,16.43
2022-12-09T21:01:40.552Z,15.23
2022-12-09T21:04:08.465Z,22.83
2022-12-09T21:06:39.652Z,20.10
2022-12-09T21:09:16.733Z,23.00
2022-12-09T21:11:44.373Z,27.07
2022-12-09T21:14:12.924Z,23.20
2022-12-09T21:16:42.573Z,18.63
2022-12-09T21:19:15.599Z,16.33
2022-12-09T21:21:45.662Z,14.23
2022-12-09T21:24:17.614Z,13.10
2022-12-09T21:26:45.618Z,11.83
2022-12-09T21:29:14.720Z,13.90
2022-12-09T21:31:42.923Z,14.97
2022-12-09T21:34:10.712Z,16.13
2022-12-09T21:36:41.887Z,14.53
2022-12-09T21:39:13.573Z,11.23
2022-12-09T21:41:42.342Z,14.57
2022-12-09T21:44:18.160Z,14.40
2022-12-09T21:46:46.221Z,14.80
2022-12-09T21:49:14.101Z,13.93
2022-12-09T21:51:42.265Z,15.63
2022-12-09T21:54:09.606Z,16.73
2022-12-09T21:56:37.242Z,13.63
2022-12-09T21:59:07.430Z,16.93
2022-12-09T22:01:41.345Z,14.43
2022-12-09T22:04:12.746Z,13.63
2022-12-09T22:06:48.465Z,16.83
2022-12-09T22:09:17.975Z,14.77
2022-12-09T22:11:45.367Z,16.83
2022-12-09T22:14:12.778Z,16.87
2022-12-09T22:16:44.187Z,11.70
2022-12-09T22:19:20.537Z,13.50
2022-12-09T22:21:48.917Z,15.23
2022-12-09T22:24:17.371Z,14.67
2022-12-09T22:26:45.011Z,14.30
2022-12-09T22:29:15.726Z,12.10
2022-12-09T22:31:44.412Z,13.03
2022-12-09T22:34:16.863Z,11.63
2022-12-09T22:36:45.473Z,15.17
2022-12-09T22:39:17.594Z,12.20
2022-12-09T22:41:45.913Z,11.60
2022-12-09T22:44:18.435Z,13.93
2022-12-09T22:46:46.562Z,15.83
2022-12-09T22:49:15.844Z,14.90
2022-12-09T22:51:44.450Z,15.00
2022-12-09T22:54:12.279Z,22.27
2022-12-09T22:56:42.667Z,25.67
2022-12-09T22:59:11.120Z,27.50
2022-12-09T23:01:38.633Z,30.60
2022-12-09T23:04:08.124Z,24.77
2022-12-09T23:06:38.589Z,19.30
2022-12-09T23:09:09.710Z,17.77
2022-12-09T23:11:37.237Z,17.83
2022-12-09T23:14:04.731Z,18.63
2022-12-09T23:16:31.931Z,18.83
2022-12-09T23:18:59.745Z,19.57
2022-12-09T23:21:35.711Z,18.07
2022-12-09T23:24:07.700Z,19.77
2022-12-09T23:26:38.665Z,16.83
2022-12-09T23:29:11.693Z,15.63
2022-12-09T23:31:39.954Z,16.17
2022-12-09T23:34:09.256Z,14.97
2022-12-09T23:36:40.867Z,16.50
2022-12-09T23:39:12.437Z,14.83
2022-12-09T23:41:42.107Z,15.00
2022-12-09T23:44:12.807Z,17.97
2022-12-09T23:46:40.953Z,16.70
2022-12-09T23:49:09.275Z,18.37
2022-12-09T23:51:40.823Z,17.00
2022-12-09T23:54:09.421Z,13.57
2022-12-09T23:56:40.364Z,15.13
2022-12-09T23:59:11.876Z,16.37
